Time;durP1;ratioP1;P1;durP2;ratioP2;P2;SDS_P1;SDS_P2;PMS_P1;PMS_P2;Temp;Humidity;BMP_temperature;BMP_pressure;BME280_temperature;BME280_humidity;BME280_pressure;Samples;Min_cycle;Max_cycle;Signal;HPM_P1;HPM_P2
2022/11/29 00:01:46;;;;;;;356.80;65.40;;;;;;;;;;4970653;28;99979;-70
2022/11/29 00:04:13;;;;;;;400.38;68.10;;;;;;;;;;4987611;28;99374;-70
2022/11/29 00:06:39;;;;;;;411.02;70.43;;;;;;;;;;4988281;28;98740;-70
2022/11/29 00:09:08;;;;;;;356.02;66.97;;;;;;;;;;5000456;28;99528;-70
2022/11/29 00:14:20;;;;;;;399.50;65.85;;;;;;;;;;5002578;28;99225;-70
2022/11/29 00:16:50;;;;;;;460.45;69.05;;;;;;;;;;4988450;28;100035;-70
2022/11/29 00:19:17;;;;;;;380.55;64.65;;;;;;;;;;4990890;28;98287;-70
2022/11/29 00:21:43;;;;;;;380.80;67.90;;;;;;;;;;4994345;28;99732;-70
2022/11/29 00:24:10;;;;;;;421.90;70.20;;;;;;;;;;5005386;28;98831;-70
2022/11/29 00:26:36;;;;;;;548.28;78.55;;;;;;;;;;5008585;28;98686;-69
2022/11/29 00:29:03;;;;;;;503.13;72.05;;;;;;;;;;4990437;28;100306;-70
2022/11/29 00:31:30;;;;;;;518.28;74.47;;;;;;;;;;5000815;28;98988;-70
2022/11/29 00:33:58;;;;;;;406.35;68.45;;;;;;;;;;4988445;28;99525;-70
2022/11/29 00:36:24;;;;;;;340.05;67.55;;;;;;;;;;4987109;28;99936;-70
2022/11/29 00:38:51;;;;;;;392.55;68.80;;;;;;;;;;4987033;28;99290;-70
2022/11/29 00:41:18;;;;;;;358.70;67.90;;;;;;;;;;4988330;28;100021;-70
2022/11/29 00:43:44;;;;;;;374.35;67.00;;;;;;;;;;4990413;28;99038;-70
2022/11/29 00:46:11;;;;;;;448.55;72.25;;;;;;;;;;4987698;28;99352;-70
2022/11/29 00:48:38;;;;;;;356.50;66.82;;;;;;;;;;4995308;28;99623;-70
2022/11/29 00:51:05;;;;;;;454.98;70.97;;;;;;;;;;5007316;28;98310;-71
2022/11/29 00:53:32;;;;;;;415.25;69.63;;;;;;;;;;5007476;28;99542;-71
2022/11/29 00:55:58;;;;;;;335.88;64.47;;;;;;;;;;5007953;28;100012;-71
2022/11/29 00:58:24;;;;;;;488.35;71.30;;;;;;;;;;5006954;28;98379;-70
2022/11/29 01:00:54;;;;;;;295.63;61.28;;;;;;;;;;5007228;28;99423;-71
2022/11/29 01:03:20;;;;;;;278.42;60.58;;;;;;;;;;5007704;28;100028;-71
2022/11/29 01:05:47;;;;;;;273.38;60.40;;;;;;;;;;5000247;28;98570;-71
2022/11/29 01:08:14;;;;;;;315.88;62.53;;;;;;;;;;4992499;28;99377;-70
2022/11/29 01:10:40;;;;;;;341.13;63.83;;;;;;;;;;5007234;28;98309;-71
2022/11/29 01:13:07;;;;;;;350.92;65.50;;;;;;;;;;5007054;28;99607;-71
2022/11/29 01:15:34;;;;;;;421.85;67.03;;;;;;;;;;5006411;28;98599;-71
2022/11/29 01:18:01;;;;;;;491.67;70.15;;;;;;;;;;4991205;28;98381;-71
2022/11/29 01:20:27;;;;;;;465.77;68.80;;;;;;;;;;4986805;28;99384;-71
2022/11/29 01:22:53;;;;;;;411.33;67.88;;;;;;;;;;4997179;28;99068;-71
2022/11/29 01:25:20;;;;;;;455.10;70.20;;;;;;;;;;5006040;28;98782;-71
2022/11/29 01:27:46;;;;;;;485.80;70.85;;;;;;;;;;5009840;28;99430;-71
2022/11/29 01:30:13;;;;;;;396.63;65.63;;;;;;;;;;5007453;28;98735;-71
2022/11/29 01:32:39;;;;;;;436.30;67.72;;;;;;;;;;5006733;28;99325;-71
2022/11/29 01:35:06;;;;;;;303.15;58.90;;;;;;;;;;5006234;28;99224;-71
2022/11/29 01:37:32;;;;;;;261.02;57.17;;;;;;;;;;5006579;28;98803;-71
2022/11/29 01:39:59;;;;;;;330.75;61.90;;;;;;;;;;5006251;28;98698;-71
2022/11/29 01:42:25;;;;;;;390.33;64.82;;;;;;;;;;5006752;28;99961;-71
2022/11/29 01:45:00;;;;;;;371.40;65.57;;;;;;;;;;5007275;28;98842;-71
2022/11/29 01:47:26;;;;;;;390.15;65.70;;;;;;;;;;4997850;28;99408;-71
2022/11/29 01:49:53;;;;;;;355.65;63.33;;;;;;;;;;4989247;28;99975;-71
2022/11/29 01:52:21;;;;;;;376.80;66.57;;;;;;;;;;4987212;28;99331;-71
2022/11/29 01:54:49;;;;;;;322.42;61.90;;;;;;;;;;4985928;28;99937;-70
2022/11/29 01:57:17;;;;;;;293.25;59.25;;;;;;;;;;4998410;28;98463;-69
2022/11/29 01:59:45;;;;;;;260.90;56.45;;;;;;;;;;5006936;28;99477;-69
2022/11/29 02:02:12;;;;;;;319.33;60.78;;;;;;;;;;5005565;28;99133;-70
2022/11/29 02:04:40;;;;;;;247.20;53.50;;;;;;;;;;5006697;28;98100;-70
2022/11/29 02:07:08;;;;;;;280.80;58.70;;;;;;;;;;5007151;28;99317;-69
2022/11/29 02:09:34;;;;;;;250.35;52.58;;;;;;;;;;5007999;28;98966;-70
2022/11/29 02:12:11;;;;;;;240.70;57.35;;;;;;;;;;5007151;28;99500;-70
2022/11/29 02:14:37;;;;;;;226.13;52.85;;;;;;;;;;4989449;28;99901;-70
2022/11/29 02:17:19;;;;;;;227.20;52.55;;;;;;;;;;4994741;28;98289;-71
2022/11/29 02:20:10;;;;;;;260.70;58.53;;;;;;;;;;5005998;28;98645;-70
2022/11/29 02:22:41;;;;;;;377.10;61.65;;;;;;;;;;5004865;28;101014;-71
2022/11/29 02:25:20;;;;;;;313.95;58.25;;;;;;;;;;5007018;28;98883;-70
2022/11/29 02:28:05;;;;;;;307.77;57.97;;;;;;;;;;5006260;28;99577;-70
2022/11/29 02:30:51;;;;;;;338.40;56.72;;;;;;;;;;4998725;28;100301;-71
2022/11/29 02:33:23;;;;;;;356.63;62.78;;;;;;;;;;4990391;28;99178;-71
2022/11/29 02:36:08;;;;;;;323.52;58.45;;;;;;;;;;4986404;28;100002;-71
2022/11/29 02:38:46;;;;;;;286.98;56.80;;;;;;;;;;4985614;28;98376;-71
2022/11/29 02:41:13;;;;;;;300.20;57.22;;;;;;;;;;4985388;28;99205;-71
2022/11/29 02:43:45;;;;;;;272.17;54.38;;;;;;;;;;4985367;28;99065;-70
2022/11/29 02:46:30;;;;;;;434.70;63.80;;;;;;;;;;4986031;28;98308;-70
2022/11/29 02:49:15;;;;;;;266.55;54.53;;;;;;;;;;5003213;28;99508;-70
2022/11/29 02:51:46;;;;;;;429.52;60.67;;;;;;;;;;5005350;28;100143;-70
2022/11/29 02:54:28;;;;;;;319.90;53.65;;;;;;;;;;5006369;28;99520;-70
2022/11/29 02:57:01;;;;;;;393.15;53.53;;;;;;;;;;5009476;28;99582;-70
2022/11/29 02:59:46;;;;;;;440.30;55.35;;;;;;;;;;5005633;28;98578;-70
2022/11/29 03:02:21;;;;;;;533.60;59.00;;;;;;;;;;5008597;28;98729;-70
2022/11/29 03:05:14;;;;;;;349.20;53.65;;;;;;;;;;4999967;28;100070;-70
2022/11/29 03:07:40;;;;;;;399.85;52.45;;;;;;;;;;4966243;28;98890;-69
2022/11/29 03:10:16;;;;;;;397.02;56.38;;;;;;;;;;5008792;28;98536;-69
2022/11/29 03:12:52;;;;;;;346.08;48.67;;;;;;;;;;5008381;28;98965;-70
2022/11/29 03:15:32;;;;;;;438.55;54.60;;;;;;;;;;5009652;28;99000;-70
2022/11/29 03:17:59;;;;;;;521.17;55.90;;;;;;;;;;4989575;28;99680;-70
2022/11/29 03:20:33;;;;;;;586.85;63.25;;;;;;;;;;4991275;28;99034;-70
2022/11/29 03:23:17;;;;;;;574.33;58.33;;;;;;;;;;4990200;28;99408;-70
2022/11/29 03:25:53;;;;;;;651.08;66.90;;;;;;;;;;4988664;28;99237;-70
2022/11/29 03:28:23;;;;;;;449.23;53.95;;;;;;;;;;4988640;28;98724;-70
2022/11/29 03:30:53;;;;;;;702.78;63.33;;;;;;;;;;4988785;28;99249;-70
2022/11/29 03:33:39;;;;;;;499.00;54.05;;;;;;;;;;4987447;28;99209;-70
2022/11/29 03:36:12;;;;;;;474.30;53.22;;;;;;;;;;4989395;28;98313;-70
2022/11/29 03:38:40;;;;;;;356.23;49.42;;;;;;;;;;4989636;28;99488;-70
2022/11/29 03:41:12;;;;;;;520.38;52.92;;;;;;;;;;4988525;28;99964;-70
2022/11/29 03:43:48;;;;;;;410.52;52.28;;;;;;;;;;4992282;28;98212;-70
2022/11/29 03:46:24;;;;;;;583.08;57.65;;;;;;;;;;4989325;28;99901;-70
2022/11/29 03:48:53;;;;;;;572.20;54.38;;;;;;;;;;4988513;28;98390;-70
2022/11/29 03:51:32;;;;;;;499.42;50.97;;;;;;;;;;4989345;28;99641;-71
2022/11/29 03:54:01;;;;;;;568.78;52.88;;;;;;;;;;4988272;28;99147;-71
2022/11/29 03:56:29;;;;;;;568.78;57.45;;;;;;;;;;5002420;28;98866;-71
2022/11/29 03:59:04;;;;;;;684.33;62.75;;;;;;;;;;4988201;28;99660;-71
2022/11/29 04:01:49;;;;;;;751.08;64.65;;;;;;;;;;4987707;28;100228;-71
2022/11/29 04:04:34;;;;;;;526.78;57.75;;;;;;;;;;4988849;28;98195;-72
2022/11/29 04:07:01;;;;;;;425.80;49.97;;;;;;;;;;4992153;28;99795;-71
2022/11/29 04:09:41;;;;;;;492.80;53.92;;;;;;;;;;5003203;28;98293;-71
2022/11/29 04:12:15;;;;;;;517.30;55.88;;;;;;;;;;5004501;28;99340;-71
2022/11/29 04:15:01;;;;;;;518.10;55.38;;;;;;;;;;4988068;28;100157;-70
2022/11/29 04:17:46;;;;;;;707.78;59.20;;;;;;;;;;4989826;28;98245;-71
2022/11/29 04:20:21;;;;;;;579.70;60.50;;;;;;;;;;4988432;28;99444;-71
2022/11/29 04:23:00;;;;;;;611.92;60.42;;;;;;;;;;4987071;28;99305;-71
2022/11/29 04:25:35;;;;;;;677.25;66.13;;;;;;;;;;4990441;28;98188;-71
2022/11/29 04:28:16;;;;;;;694.45;65.20;;;;;;;;;;5011743;28;99426;-71
2022/11/29 04:30:52;;;;;;;522.25;58.20;;;;;;;;;;4990370;28;98846;-71
2022/11/29 04:33:43;;;;;;;535.67;55.80;;;;;;;;;;4988139;28;98477;-71
2022/11/29 04:36:15;;;;;;;370.80;49.13;;;;;;;;;;4987700;28;99274;-71
2022/11/29 04:38:47;;;;;;;373.55;48.97;;;;;;;;;;4987896;28;98186;-71
2022/11/29 04:41:13;;;;;;;338.50;40.37;;;;;;;;;;4988107;28;99713;-71
2022/11/29 04:43:39;;;;;;;482.33;47.75;;;;;;;;;;4986502;28;99099;-71
2022/11/29 04:46:25;;;;;;;394.05;47.92;;;;;;;;;;4989024;28;98246;-71
2022/11/29 04:49:01;;;;;;;379.02;43.88;;;;;;;;;;4987968;28;99564;-71
2022/11/29 04:51:40;;;;;;;436.80;43.35;;;;;;;;;;4989646;28;100355;-71
2022/11/29 04:54:19;;;;;;;476.60;49.13;;;;;;;;;;4987947;28;99272;-70
2022/11/29 04:56:50;;;;;;;267.73;38.85;;;;;;;;;;4988170;28;100097;-70
2022/11/29 04:59:25;;;;;;;482.52;46.90;;;;;;;;;;4987500;28;98621;-70
2022/11/29 05:01:54;;;;;;;404.90;45.50;;;;;;;;;;4987248;28;98561;-70
2022/11/29 05:04:24;;;;;;;408.05;43.90;;;;;;;;;;5001614;28;100167;-70
2022/11/29 05:07:00;;;;;;;470.77;46.50;;;;;;;;;;5007459;28;98995;-71
2022/11/29 05:09:26;;;;;;;467.38;46.75;;;;;;;;;;5007832;28;99353;-70
2022/11/29 05:12:07;;;;;;;448.08;44.03;;;;;;;;;;5007330;28;100071;-70
2022/11/29 05:14:39;;;;;;;463.48;46.20;;;;;;;;;;5010801;28;98648;-71
2022/11/29 05:17:06;;;;;;;552.20;48.88;;;;;;;;;;5006446;28;100042;-70
2022/11/29 05:19:45;;;;;;;349.67;43.42;;;;;;;;;;5006751;28;98205;-70
2022/11/29 05:22:18;;;;;;;391.77;43.22;;;;;;;;;;4987664;28;99594;-71
2022/11/29 05:24:51;;;;;;;417.55;45.85;;;;;;;;;;4987392;28;100907;-70
2022/11/29 05:27:50;;;;;;;432.23;45.03;;;;;;;;;;4986967;28;98195;-70
2022/11/29 05:30:21;;;;;;;636.58;55.95;;;;;;;;;;4954632;28;98714;-70
2022/11/29 05:32:51;;;;;;;308.02;40.03;;;;;;;;;;4986495;28;100331;-70
2022/11/29 05:35:17;;;;;;;586.72;50.83;;;;;;;;;;4987824;28;98247;-70
2022/11/29 05:37:51;;;;;;;451.08;50.63;;;;;;;;;;4998749;28;100191;-70
2022/11/29 05:40:27;;;;;;;290.33;40.58;;;;;;;;;;5006803;28;98282;-70
2022/11/29 05:43:08;;;;;;;378.55;42.75;;;;;;;;;;5005950;28;98761;-70
2022/11/29 05:45:34;;;;;;;450.20;47.47;;;;;;;;;;5006984;28;99975;-70
2022/11/29 05:48:05;;;;;;;447.88;45.33;;;;;;;;;;5005509;28;98275;-71
2022/11/29 05:50:37;;;;;;;245.48;34.58;;;;;;;;;;5007290;28;99584;-69
2022/11/29 05:53:15;;;;;;;208.50;37.03;;;;;;;;;;5006159;28;98984;-70
2022/11/29 05:55:54;;;;;;;215.77;36.20;;;;;;;;;;5005915;28;98525;-71
2022/11/29 05:58:31;;;;;;;228.32;30.42;;;;;;;;;;4998041;28;98585;-70
2022/11/29 06:01:05;;;;;;;158.23;26.67;;;;;;;;;;5004504;28;100026;-71
2022/11/29 06:03:37;;;;;;;273.95;30.75;;;;;;;;;;5006456;28;99325;-70
2022/11/29 06:06:21;;;;;;;216.43;29.70;;;;;;;;;;5006675;28;99159;-70
2022/11/29 06:08:52;;;;;;;209.20;26.17;;;;;;;;;;5005347;28;98386;-70
2022/11/29 06:11:25;;;;;;;182.85;25.77;;;;;;;;;;5001527;28;99662;-70
2022/11/29 06:14:01;;;;;;;151.73;28.23;;;;;;;;;;4987109;28;99950;-70
2022/11/29 06:16:56;;;;;;;329.60;32.80;;;;;;;;;;4999139;28;98349;-70
2022/11/29 06:19:38;;;;;;;238.85;27.30;;;;;;;;;;4983707;28;99351;-70
2022/11/29 06:22:15;;;;;;;227.82;26.77;;;;;;;;;;5006323;28;100021;-71
2022/11/29 06:25:01;;;;;;;336.90;29.73;;;;;;;;;;5010008;28;98483;-70
2022/11/29 06:27:56;;;;;;;161.07;29.15;;;;;;;;;;5006480;28;100051;-70
2022/11/29 06:30:26;;;;;;;223.48;26.38;;;;;;;;;;4986484;28;98230;-70
2022/11/29 06:32:56;;;;;;;191.15;23.73;;;;;;;;;;4986975;28;99740;-70
2022/11/29 06:35:34;;;;;;;214.65;29.58;;;;;;;;;;4985293;28;100023;-70
2022/11/29 06:38:11;;;;;;;156.07;21.15;;;;;;;;;;4985489;28;98401;-71
2022/11/29 06:40:37;;;;;;;179.10;31.10;;;;;;;;;;4986630;28;99619;-72
2022/11/29 06:43:04;;;;;;;187.00;23.92;;;;;;;;;;4986071;28;100014;-70
2022/11/29 06:45:30;;;;;;;196.13;23.85;;;;;;;;;;4990483;28;98444;-69
2022/11/29 06:48:00;;;;;;;250.43;24.35;;;;;;;;;;4986279;28;100079;-69
2022/11/29 06:50:52;;;;;;;188.25;22.80;;;;;;;;;;4985540;28;98383;-69
2022/11/29 06:53:22;;;;;;;143.57;19.17;;;;;;;;;;4986714;28;99680;-69
2022/11/29 06:56:01;;;;;;;181.82;22.75;;;;;;;;;;4986420;28;99948;-69
2022/11/29 06:58:31;;;;;;;160.50;19.90;;;;;;;;;;4985823;28;98571;-69
2022/11/29 07:01:20;;;;;;;108.80;17.35;;;;;;;;;;4985493;28;98416;-69
2022/11/29 07:03:49;;;;;;;148.80;21.40;;;;;;;;;;4996661;28;99961;-69
2022/11/29 07:06:24;;;;;;;194.98;23.00;;;;;;;;;;4985953;28;98343;-69
2022/11/29 07:08:52;;;;;;;233.65;25.63;;;;;;;;;;4999904;28;99728;-69
2022/11/29 07:11:19;;;;;;;279.92;27.23;;;;;;;;;;5005185;28;98292;-69
2022/11/29 07:13:47;;;;;;;306.20;29.52;;;;;;;;;;5006040;28;99337;-69
2022/11/29 07:16:24;;;;;;;254.90;27.05;;;;;;;;;;5003109;28;100045;-69
2022/11/29 07:18:59;;;;;;;399.35;31.85;;;;;;;;;;5002394;28;98153;-69
2022/11/29 07:21:38;;;;;;;157.27;23.90;;;;;;;;;;5003448;28;99822;-70
2022/11/29 07:24:13;;;;;;;198.88;25.55;;;;;;;;;;5004183;28;99104;-69
2022/11/29 07:26:55;;;;;;;289.92;27.75;;;;;;;;;;4998744;28;98350;-71
2022/11/29 07:29:43;;;;;;;240.88;27.67;;;;;;;;;;4985843;28;99611;-69
2022/11/29 07:32:13;;;;;;;293.40;27.55;;;;;;;;;;4988047;28;99681;-69
2022/11/29 07:35:07;;;;;;;265.45;25.90;;;;;;;;;;4989865;28;98541;-70
2022/11/29 07:37:40;;;;;;;246.48;27.90;;;;;;;;;;4978049;28;100123;-70
2022/11/29 07:40:15;;;;;;;277.13;29.33;;;;;;;;;;5000719;28;98644;-70
2022/11/29 07:42:50;;;;;;;293.05;29.52;;;;;;;;;;5000926;28;99381;-70
2022/11/29 07:45:30;;;;;;;413.35;33.00;;;;;;;;;;4998034;28;99955;-70
2022/11/29 07:47:57;;;;;;;211.15;26.42;;;;;;;;;;5005186;28;98314;-71
2022/11/29 07:50:25;;;;;;;130.43;22.50;;;;;;;;;;5001634;28;99022;-71
2022/11/29 07:52:52;;;;;;;201.65;26.60;;;;;;;;;;5001262;28;99355;-71
2022/11/29 07:55:20;;;;;;;213.95;26.73;;;;;;;;;;5008869;28;98627;-71
2022/11/29 07:57:46;;;;;;;248.02;26.63;;;;;;;;;;5008014;28;100437;-71
2022/11/29 08:00:13;;;;;;;224.05;25.30;;;;;;;;;;5005456;28;99386;-71
2022/11/29 08:02:40;;;;;;;214.63;23.05;;;;;;;;;;4987641;28;99393;-71
2022/11/29 08:05:07;;;;;;;193.35;24.52;;;;;;;;;;4997686;28;100258;-71
2022/11/29 08:07:34;;;;;;;165.02;24.20;;;;;;;;;;5007346;28;98282;-71
2022/11/29 08:10:01;;;;;;;207.52;24.77;;;;;;;;;;5009110;28;98608;-71
2022/11/29 08:12:27;;;;;;;187.85;23.25;;;;;;;;;;5004123;28;100702;-71
2022/11/29 08:14:53;;;;;;;145.82;22.45;;;;;;;;;;4994778;28;98314;-71
2022/11/29 08:17:20;;;;;;;136.10;21.08;;;;;;;;;;5010458;28;99810;-74
2022/11/29 08:19:46;;;;;;;145.93;19.10;;;;;;;;;;4997154;28;98282;-71
2022/11/29 08:22:14;;;;;;;99.95;19.35;;;;;;;;;;5001616;28;99355;-71
2022/11/29 08:24:41;;;;;;;58.35;15.60;;;;;;;;;;5005058;28;99211;-71
2022/11/29 08:27:07;;;;;;;65.95;16.98;;;;;;;;;;4993596;28;98350;-71
2022/11/29 08:29:33;;;;;;;61.15;15.02;;;;;;;;;;4990616;28;99857;-71
2022/11/29 08:32:00;;;;;;;68.60;15.52;;;;;;;;;;4996375;28;98989;-71
2022/11/29 08:34:27;;;;;;;75.40;16.15;;;;;;;;;;5007060;28;98689;-71
2022/11/29 08:36:54;;;;;;;70.22;16.20;;;;;;;;;;5006895;28;98731;-71
2022/11/29 08:39:20;;;;;;;115.57;18.80;;;;;;;;;;5011229;28;98031;-71
2022/11/29 08:41:50;;;;;;;102.53;17.63;;;;;;;;;;5007306;28;99369;-72
2022/11/29 08:44:17;;;;;;;100.03;17.30;;;;;;;;;;5007862;28;99998;-71
2022/11/29 08:49:28;;;;;;;130.20;18.80;;;;;;;;;;4993133;28;99461;-71
2022/11/29 08:53:40;;;;;;;99.95;17.80;;;;;;;;;;4987714;28;100218;-71
2022/11/29 08:54:41;;;;;;;147.90;19.00;;;;;;;;;;4988080;28;99250;-71
2022/11/29 08:57:08;;;;;;;156.80;20.95;;;;;;;;;;5004764;28;101789;-71
2022/11/29 08:59:54;;;;;;;118.95;18.83;;;;;;;;;;5008054;28;98990;-71
2022/11/29 09:02:21;;;;;;;87.78;17.27;;;;;;;;;;5006377;28;98774;-71
2022/11/29 09:04:47;;;;;;;118.88;19.40;;;;;;;;;;5006882;28;100160;-71
2022/11/29 09:07:14;;;;;;;106.07;19.88;;;;;;;;;;4995626;28;98795;-71
2022/11/29 09:09:41;;;;;;;79.97;18.42;;;;;;;;;;5001978;28;99353;-72
2022/11/29 09:12:08;;;;;;;105.25;19.92;;;;;;;;;;5006797;28;98637;-71
2022/11/29 09:14:35;;;;;;;93.97;20.90;;;;;;;;;;5007578;28;98491;-71
2022/11/29 09:17:01;;;;;;;170.65;22.35;;;;;;;;;;5007091;28;99729;-71
2022/11/29 09:19:27;;;;;;;191.98;23.27;;;;;;;;;;5005281;28;99044;-71
2022/11/29 09:21:54;;;;;;;158.80;22.08;;;;;;;;;;5011308;28;98314;-71
2022/11/29 09:24:20;;;;;;;221.13;23.08;;;;;;;;;;5004533;28;100353;-72
2022/11/29 09:26:47;;;;;;;130.38;20.75;;;;;;;;;;4998006;28;98712;-72
2022/11/29 09:29:15;;;;;;;163.98;21.67;;;;;;;;;;5006921;28;99521;-71
2022/11/29 09:31:43;;;;;;;113.68;20.05;;;;;;;;;;5006655;28;99913;-72
2022/11/29 09:34:13;;;;;;;109.93;19.92;;;;;;;;;;5004294;28;99451;-71
2022/11/29 09:36:40;;;;;;;137.88;19.38;;;;;;;;;;5002778;28;99490;-72
2022/11/29 09:39:06;;;;;;;112.47;19.23;;;;;;;;;;5000442;28;100027;-71
2022/11/29 09:41:33;;;;;;;155.60;20.85;;;;;;;;;;5007105;28;98780;-72
2022/11/29 09:44:07;;;;;;;141.50;18.58;;;;;;;;;;5006402;28;99628;-72
2022/11/29 09:46:36;;;;;;;103.93;18.58;;;;;;;;;;4997460;28;100374;-72
2022/11/29 09:49:09;;;;;;;71.50;16.45;;;;;;;;;;4987796;28;99598;-72
2022/11/29 09:51:48;;;;;;;135.25;18.25;;;;;;;;;;4986737;28;100238;-72
2022/11/29 09:54:33;;;;;;;64.05;14.90;;;;;;;;;;5005341;28;98254;-72
2022/11/29 09:57:02;;;;;;;68.70;15.63;;;;;;;;;;4994389;28;101145;-72
2022/11/29 09:59:41;;;;;;;41.15;14.15;;;;;;;;;;5004178;28;99800;-71
2022/11/29 10:02:14;;;;;;;59.78;14.85;;;;;;;;;;5001461;28;98947;-72
2022/11/29 10:04:49;;;;;;;52.75;14.68;;;;;;;;;;4995636;28;99706;-72
2022/11/29 10:07:20;;;;;;;49.10;14.57;;;;;;;;;;5007938;28;100194;-71
2022/11/29 10:09:49;;;;;;;54.33;15.18;;;;;;;;;;5005364;28;98435;-72
2022/11/29 10:12:17;;;;;;;77.25;16.17;;;;;;;;;;4999101;28;99722;-72
2022/11/29 10:14:46;;;;;;;60.53;14.57;;;;;;;;;;5004487;28;98268;-72
2022/11/29 10:17:20;;;;;;;63.22;14.40;;;;;;;;;;5001555;28;98759;-72
2022/11/29 10:19:51;;;;;;;114.65;17.23;;;;;;;;;;5005018;28;100464;-73
2022/11/29 10:22:34;;;;;;;98.95;16.20;;;;;;;;;;5004357;28;98849;-72
2022/11/29 10:25:01;;;;;;;59.08;16.08;;;;;;;;;;5006392;28;98594;-72
2022/11/29 10:27:28;;;;;;;57.95;15.48;;;;;;;;;;5006233;28;99219;-71
2022/11/29 10:29:55;;;;;;;54.42;15.95;;;;;;;;;;5006617;28;98315;-72
2022/11/29 10:32:24;;;;;;;53.92;15.73;;;;;;;;;;5005640;28;99034;-72
2022/11/29 10:34:50;;;;;;;56.85;16.83;;;;;;;;;;4998390;28;98688;-71
2022/11/29 10:37:18;;;;;;;63.13;18.05;;;;;;;;;;5004629;28;99667;-72
2022/11/29 10:39:53;;;;;;;61.15;17.42;;;;;;;;;;5004716;28;99934;-72
2022/11/29 10:45:29;;;;;;;182.63;19.65;;;;;;;;;;4994457;28;99436;-72
2022/11/29 10:48:05;;;;;;;80.65;18.15;;;;;;;;;;4986391;28;99990;-72
2022/11/29 10:50:33;;;;;;;76.80;17.90;;;;;;;;;;4989516;28;98285;-72
2022/11/29 10:53:02;;;;;;;74.82;18.73;;;;;;;;;;5005382;28;100155;-72
2022/11/29 10:55:32;;;;;;;74.22;18.92;;;;;;;;;;5006303;28;98273;-72
2022/11/29 10:58:08;;;;;;;101.22;20.00;;;;;;;;;;5003628;28;99668;-72
2022/11/29 11:00:45;;;;;;;96.40;18.67;;;;;;;;;;5000768;28;99283;-72
2022/11/29 11:03:16;;;;;;;53.03;19.55;;;;;;;;;;4996777;28;98236;-72
2022/11/29 11:05:53;;;;;;;49.72;19.00;;;;;;;;;;4994983;28;98610;-74
2022/11/29 11:08:19;;;;;;;49.80;19.45;;;;;;;;;;4998513;28;100661;-72
2022/11/29 11:10:50;;;;;;;43.75;17.40;;;;;;;;;;5005666;28;98311;-73
2022/11/29 11:13:23;;;;;;;55.28;16.50;;;;;;;;;;4993361;28;98530;-73
2022/11/29 11:16:16;;;;;;;44.80;16.73;;;;;;;;;;5005120;28;98230;-72
2022/11/29 11:18:43;;;;;;;37.65;16.25;;;;;;;;;;4996667;28;100118;-71
2022/11/29 11:21:11;;;;;;;45.60;17.75;;;;;;;;;;5000224;28;100332;-72
2022/11/29 11:23:41;;;;;;;49.45;16.58;;;;;;;;;;5000494;28;100642;-71
2022/11/29 11:26:10;;;;;;;49.45;19.30;;;;;;;;;;4990778;28;99495;-73
2022/11/29 11:28:39;;;;;;;56.00;17.30;;;;;;;;;;4998778;28;100062;-72
2022/11/29 11:31:07;;;;;;;43.92;17.35;;;;;;;;;;4988578;28;98282;-72
2022/11/29 11:33:36;;;;;;;48.60;19.00;;;;;;;;;;5005460;28;99290;-72
2022/11/29 11:36:18;;;;;;;44.63;18.23;;;;;;;;;;5012569;28;100335;-72
2022/11/29 11:38:55;;;;;;;45.42;18.05;;;;;;;;;;5007514;28;99767;-72
2022/11/29 11:44:39;;;;;;;50.45;19.17;;;;;;;;;;4987808;28;98343;-73
2022/11/29 11:47:21;;;;;;;57.65;19.80;;;;;;;;;;5008560;28;99607;-74
2022/11/29 11:49:52;;;;;;;52.90;19.90;;;;;;;;;;5006530;28;99153;-72
2022/11/29 11:52:22;;;;;;;45.15;18.65;;;;;;;;;;4991248;28;98665;-72
2022/11/29 11:54:51;;;;;;;52.45;18.77;;;;;;;;;;4989279;28;99949;-72
2022/11/29 11:57:17;;;;;;;47.33;18.80;;;;;;;;;;4989233;28;100344;-72
2022/11/29 11:59:48;;;;;;;45.53;19.42;;;;;;;;;;4991711;28;98320;-72
2022/11/29 12:02:25;;;;;;;40.28;17.77;;;;;;;;;;4989026;28;100128;-72
2022/11/29 12:04:53;;;;;;;45.67;19.23;;;;;;;;;;4987480;28;98300;-71
2022/11/29 12:07:31;;;;;;;42.78;19.38;;;;;;;;;;5004103;28;98678;-70
2022/11/29 12:10:19;;;;;;;37.58;17.45;;;;;;;;;;5009099;28;100259;-71
2022/11/29 12:12:47;;;;;;;47.97;18.05;;;;;;;;;;5008514;28;98292;-71
2022/11/29 12:15:22;;;;;;;40.60;18.08;;;;;;;;;;5008200;28;99475;-70
2022/11/29 12:17:57;;;;;;;40.05;17.25;;;;;;;;;;5008584;28;100060;-71
2022/11/29 12:20:23;;;;;;;36.65;17.88;;;;;;;;;;5008665;28;98214;-71
2022/11/29 12:22:58;;;;;;;39.92;16.58;;;;;;;;;;5009631;28;99703;-71
2022/11/29 12:25:28;;;;;;;42.75;18.00;;;;;;;;;;4989455;28;98331;-71
2022/11/29 12:27:54;;;;;;;37.22;17.08;;;;;;;;;;4988028;28;100194;-71
2022/11/29 12:30:20;;;;;;;36.70;17.67;;;;;;;;;;4987853;28;99932;-71
2022/11/29 12:32:47;;;;;;;35.63;16.63;;;;;;;;;;4988359;28;98278;-72
2022/11/29 12:35:13;;;;;;;42.10;17.85;;;;;;;;;;4986993;28;98747;-72
2022/11/29 12:38:02;;;;;;;39.63;16.67;;;;;;;;;;4987623;28;99109;-73
2022/11/29 12:40:31;;;;;;;29.67;14.70;;;;;;;;;;4991907;28;98336;-73
2022/11/29 12:43:12;;;;;;;38.67;16.02;;;;;;;;;;4987312;28;98899;-73
2022/11/29 12:45:39;;;;;;;31.83;15.82;;;;;;;;;;4991166;28;100069;-73
2022/11/29 12:48:20;;;;;;;33.85;15.77;;;;;;;;;;4988295;28;98912;-73
2022/11/29 12:51:02;;;;;;;36.10;16.27;;;;;;;;;;4987075;28;100160;-72
2022/11/29 12:53:34;;;;;;;33.88;15.35;;;;;;;;;;4987596;28;98577;-72
2022/11/29 12:56:06;;;;;;;29.25;15.00;;;;;;;;;;4986947;28;99588;-73
2022/11/29 12:58:47;;;;;;;34.13;17.17;;;;;;;;;;4987792;28;99879;-73
2022/11/29 13:01:23;;;;;;;35.33;16.75;;;;;;;;;;4987990;28;98262;-73
2022/11/29 13:03:52;;;;;;;28.98;16.45;;;;;;;;;;4987641;28;99778;-72
2022/11/29 13:06:18;;;;;;;38.67;16.90;;;;;;;;;;4990796;28;98501;-72
2022/11/29 13:08:45;;;;;;;38.05;17.08;;;;;;;;;;4987047;28;100514;-73
2022/11/29 13:11:11;;;;;;;32.90;17.38;;;;;;;;;;4987221;28;100276;-73
2022/11/29 13:13:39;;;;;;;36.00;16.80;;;;;;;;;;4987624;28;98330;-73
2022/11/29 13:16:24;;;;;;;33.97;17.58;;;;;;;;;;4988115;28;99417;-71
2022/11/29 13:19:11;;;;;;;30.23;15.88;;;;;;;;;;4986975;28;99543;-73
2022/11/29 13:21:46;;;;;;;30.60;15.98;;;;;;;;;;4985926;28;98246;-71
2022/11/29 13:24:18;;;;;;;23.30;11.98;;;;;;;;;;4987278;28;99967;-72
2022/11/29 13:26:44;;;;;;;30.57;16.07;;;;;;;;;;4987477;28;100210;-73
2022/11/29 13:29:13;;;;;;;29.20;14.18;;;;;;;;;;4990725;28;98336;-72
2022/11/29 13:31:39;;;;;;;36.75;16.35;;;;;;;;;;4986291;28;99374;-72
2022/11/29 13:34:11;;;;;;;36.55;16.42;;;;;;;;;;4987213;28;98273;-72
2022/11/29 13:36:38;;;;;;;34.30;15.52;;;;;;;;;;4987357;28;99290;-73
2022/11/29 13:39:12;;;;;;;33.33;15.52;;;;;;;;;;4989997;28;100256;-73
2022/11/29 13:41:58;;;;;;;34.00;15.05;;;;;;;;;;4986678;28;98270;-72
2022/11/29 13:44:54;;;;;;;31.13;15.02;;;;;;;;;;4987937;28;99361;-72
2022/11/29 13:47:21;;;;;;;30.73;15.00;;;;;;;;;;4968528;28;100272;-72
2022/11/29 13:49:49;;;;;;;35.75;15.63;;;;;;;;;;4990228;28;98327;-72
2022/11/29 13:52:36;;;;;;;27.70;14.00;;;;;;;;;;4998621;28;98527;-72
2022/11/29 13:55:14;;;;;;;24.27;13.88;;;;;;;;;;5006583;28;98318;-72
2022/11/29 13:57:45;;;;;;;30.67;15.07;;;;;;;;;;5006378;28;98742;-72
2022/11/29 14:00:32;;;;;;;33.17;16.27;;;;;;;;;;4998234;28;98887;-72
2022/11/29 14:03:17;;;;;;;30.35;15.95;;;;;;;;;;5000648;28;98376;-72
2022/11/29 14:05:45;;;;;;;34.33;16.65;;;;;;;;;;5003840;28;99757;-72
2022/11/29 14:08:31;;;;;;;34.80;16.70;;;;;;;;;;5005642;28;99999;-72
2022/11/29 14:11:21;;;;;;;34.33;15.00;;;;;;;;;;4987113;28;98361;-72
2022/11/29 14:14:06;;;;;;;27.88;15.18;;;;;;;;;;4985393;28;99862;-72
2022/11/29 14:16:35;;;;;;;30.58;15.25;;;;;;;;;;4998048;28;99204;-72
2022/11/29 14:19:04;;;;;;;29.95;15.57;;;;;;;;;;5006714;28;99601;-72
2022/11/29 14:21:49;;;;;;;37.03;16.50;;;;;;;;;;4998992;28;100625;-71
2022/11/29 14:24:30;;;;;;;32.00;15.68;;;;;;;;;;4987182;28;98254;-71
2022/11/29 14:27:17;;;;;;;31.65;15.93;;;;;;;;;;4987132;28;99778;-72
2022/11/29 14:29:46;;;;;;;38.83;16.38;;;;;;;;;;4986365;28;100372;-72
2022/11/29 14:32:20;;;;;;;37.20;16.95;;;;;;;;;;4992180;28;98191;-72
2022/11/29 14:34:49;;;;;;;32.38;17.33;;;;;;;;;;5005364;28;99379;-72
2022/11/29 14:37:25;;;;;;;38.55;16.70;;;;;;;;;;4995901;28;99961;-72
2022/11/29 14:39:53;;;;;;;38.67;17.25;;;;;;;;;;4989160;28;98257;-72
2022/11/29 14:42:21;;;;;;;40.47;17.48;;;;;;;;;;4994049;28;100153;-72
2022/11/29 14:44:52;;;;;;;25.60;14.95;;;;;;;;;;5002842;28;98293;-70
2022/11/29 14:47:23;;;;;;;33.20;16.60;;;;;;;;;;4994453;28;98693;-71
2022/11/29 14:49:50;;;;;;;33.70;17.45;;;;;;;;;;5000964;28;100168;-70